sensor_id;sensor_type;location;lat;lon;timestamp;P1;durP1;ratioP1;P2;durP2;ratioP2
577;SDS011;275;48.492;9.214;2023-04-15T00:00:50;7.10;;;5.03;;
577;SDS011;275;48.492;9.214;2023-04-15T00:03:18;7.22;;;4.38;;
577;SDS011;275;48.492;9.214;2023-04-15T00:05:45;5.18;;;4.25;;
577;SDS011;275;48.492;9.214;2023-04-15T00:08:12;7.13;;;4.05;;
577;SDS011;275;48.492;9.214;2023-04-15T00:10:40;10.00;;;4.90;;
577;SDS011;275;48.492;9.214;2023-04-15T00:13:08;6.43;;;3.78;;
577;SDS011;275;48.492;9.214;2023-04-15T00:15:35;6.85;;;4.07;;
577;SDS011;275;48.492;9.214;2023-04-15T00:18:03;10.20;;;4.20;;
577;SDS011;275;48.492;9.214;2023-04-15T00:20:30;8.10;;;4.30;;
577;SDS011;275;48.492;9.214;2023-04-15T00:22:56;8.75;;;4.55;;
577;SDS011;275;48.492;9.214;2023-04-15T00:25:24;8.98;;;6.88;;
577;SDS011;275;48.492;9.214;2023-04-15T00:27:52;9.48;;;8.07;;
577;SDS011;275;48.492;9.214;2023-04-15T00:30:19;12.35;;;8.77;;
577;SDS011;275;48.492;9.214;2023-04-15T00:32:46;13.90;;;11.80;;
577;SDS011;275;48.492;9.214;2023-04-15T00:35:13;10.05;;;8.27;;
577;SDS011;275;48.492;9.214;2023-04-15T00:37:40;9.50;;;8.20;;
577;SDS011;275;48.492;9.214;2023-04-15T00:42:37;10.70;;;8.07;;
577;SDS011;275;48.492;9.214;2023-04-15T00:45:06;8.80;;;7.10;;
577;SDS011;275;48.492;9.214;2023-04-15T00:47:34;12.50;;;8.75;;
577;SDS011;275;48.492;9.214;2023-04-15T00:50:01;10.35;;;9.20;;
577;SDS011;275;48.492;9.214;2023-04-15T00:52:29;10.50;;;9.48;;
577;SDS011;275;48.492;9.214;2023-04-15T00:54:56;10.93;;;8.30;;
577;SDS011;275;48.492;9.214;2023-04-15T00:57:22;10.68;;;9.55;;
577;SDS011;275;48.492;9.214;2023-04-15T00:59:49;12.13;;;9.65;;
577;SDS011;275;48.492;9.214;2023-04-15T01:02:19;10.20;;;8.85;;
577;SDS011;275;48.492;9.214;2023-04-15T01:04:46;10.88;;;9.77;;
577;SDS011;275;48.492;9.214;2023-04-15T01:07:13;9.18;;;8.15;;
577;SDS011;275;48.492;9.214;2023-04-15T01:09:41;9.68;;;7.68;;
577;SDS011;275;48.492;9.214;2023-04-15T01:12:10;9.93;;;6.68;;
577;SDS011;275;48.492;9.214;2023-04-15T01:14:39;9.48;;;6.93;;
577;SDS011;275;48.492;9.214;2023-04-15T01:17:06;7.43;;;4.85;;
577;SDS011;275;48.492;9.214;2023-04-15T01:19:34;10.85;;;6.40;;
577;SDS011;275;48.492;9.214;2023-04-15T01:22:02;8.27;;;6.32;;
577;SDS011;275;48.492;9.214;2023-04-15T01:24:29;6.63;;;4.95;;
577;SDS011;275;48.492;9.214;2023-04-15T01:26:59;7.38;;;5.18;;
577;SDS011;275;48.492;9.214;2023-04-15T01:29:26;7.63;;;4.35;;
577;SDS011;275;48.492;9.214;2023-04-15T01:31:53;7.28;;;4.43;;
577;SDS011;275;48.492;9.214;2023-04-15T01:34:21;7.85;;;4.65;;
577;SDS011;275;48.492;9.214;2023-04-15T01:36:48;9.68;;;3.88;;
577;SDS011;275;48.492;9.214;2023-04-15T01:39:15;7.20;;;4.47;;
577;SDS011;275;48.492;9.214;2023-04-15T01:41:42;5.25;;;3.92;;
577;SDS011;275;48.492;9.214;2023-04-15T01:44:10;9.30;;;4.68;;
577;SDS011;275;48.492;9.214;2023-04-15T01:46:37;6.53;;;5.15;;
577;SDS011;275;48.492;9.214;2023-04-15T01:49:04;9.32;;;5.20;;
577;SDS011;275;48.492;9.214;2023-04-15T01:51:31;6.80;;;4.97;;
577;SDS011;275;48.492;9.214;2023-04-15T01:53:58;6.40;;;5.18;;
577;SDS011;275;48.492;9.214;2023-04-15T01:56:25;9.00;;;5.53;;
577;SDS011;275;48.492;9.214;2023-04-15T01:58:52;7.38;;;5.25;;
577;SDS011;275;48.492;9.214;2023-04-15T02:01:20;7.68;;;5.50;;
577;SDS011;275;48.492;9.214;2023-04-15T02:03:47;9.55;;;6.18;;
577;SDS011;275;48.492;9.214;2023-04-15T02:06:14;6.30;;;5.10;;
577;SDS011;275;48.492;9.214;2023-04-15T02:08:41;6.75;;;5.13;;
577;SDS011;275;48.492;9.214;2023-04-15T02:11:08;8.20;;;5.60;;
577;SDS011;275;48.492;9.214;2023-04-15T02:13:34;7.45;;;5.70;;
577;SDS011;275;48.492;9.214;2023-04-15T02:16:01;8.02;;;4.70;;
577;SDS011;275;48.492;9.214;2023-04-15T02:18:30;6.65;;;4.63;;
577;SDS011;275;48.492;9.214;2023-04-15T02:20:57;6.38;;;5.00;;
577;SDS011;275;48.492;9.214;2023-04-15T02:23:24;9.90;;;5.78;;
577;SDS011;275;48.492;9.214;2023-04-15T02:25:50;7.68;;;5.03;;
577;SDS011;275;48.492;9.214;2023-04-15T02:28:17;8.05;;;5.57;;
577;SDS011;275;48.492;9.214;2023-04-15T02:30:46;7.20;;;5.03;;
577;SDS011;275;48.492;9.214;2023-04-15T02:33:14;7.10;;;4.70;;
577;SDS011;275;48.492;9.214;2023-04-15T02:35:42;6.93;;;4.18;;
577;SDS011;275;48.492;9.214;2023-04-15T02:38:10;6.05;;;4.55;;
577;SDS011;275;48.492;9.214;2023-04-15T02:40:38;7.47;;;5.78;;
577;SDS011;275;48.492;9.214;2023-04-15T02:43:04;9.68;;;6.05;;
577;SDS011;275;48.492;9.214;2023-04-15T02:45:31;8.43;;;6.13;;
577;SDS011;275;48.492;9.214;2023-04-15T02:47:58;7.55;;;6.75;;
577;SDS011;275;48.492;9.214;2023-04-15T02:50:29;9.23;;;6.93;;
577;SDS011;275;48.492;9.214;2023-04-15T02:52:58;11.80;;;6.85;;
577;SDS011;275;48.492;9.214;2023-04-15T02:55:25;7.53;;;6.03;;
577;SDS011;275;48.492;9.214;2023-04-15T02:57:52;7.68;;;6.53;;
577;SDS011;275;48.492;9.214;2023-04-15T03:00:19;9.52;;;6.47;;
577;SDS011;275;48.492;9.214;2023-04-15T03:02:45;7.47;;;6.10;;
577;SDS011;275;48.492;9.214;2023-04-15T03:05:20;9.52;;;6.72;;
577;SDS011;275;48.492;9.214;2023-04-15T03:07:48;9.23;;;6.35;;
577;SDS011;275;48.492;9.214;2023-04-15T03:10:17;9.48;;;6.90;;
577;SDS011;275;48.492;9.214;2023-04-15T03:12:44;8.38;;;5.85;;
577;SDS011;275;48.492;9.214;2023-04-15T03:15:10;7.40;;;5.00;;
577;SDS011;275;48.492;9.214;2023-04-15T03:17:37;10.13;;;5.85;;
577;SDS011;275;48.492;9.214;2023-04-15T03:20:04;6.78;;;4.68;;
577;SDS011;275;48.492;9.214;2023-04-15T03:22:32;6.70;;;5.45;;
577;SDS011;275;48.492;9.214;2023-04-15T03:24:59;6.18;;;5.25;;
577;SDS011;275;48.492;9.214;2023-04-15T03:27:28;8.20;;;4.95;;
577;SDS011;275;48.492;9.214;2023-04-15T03:29:55;7.57;;;5.70;;
577;SDS011;275;48.492;9.214;2023-04-15T03:32:21;8.07;;;5.97;;
577;SDS011;275;48.492;9.214;2023-04-15T03:34:48;8.50;;;6.78;;
577;SDS011;275;48.492;9.214;2023-04-15T03:37:15;8.13;;;5.90;;
577;SDS011;275;48.492;9.214;2023-04-15T03:39:42;8.80;;;5.80;;
577;SDS011;275;48.492;9.214;2023-04-15T03:42:09;11.43;;;6.10;;
577;SDS011;275;48.492;9.214;2023-04-15T03:44:37;8.05;;;5.68;;
577;SDS011;275;48.492;9.214;2023-04-15T03:47:04;6.88;;;5.75;;
577;SDS011;275;48.492;9.214;2023-04-15T03:49:30;9.25;;;6.20;;
577;SDS011;275;48.492;9.214;2023-04-15T03:51:57;7.38;;;5.65;;
577;SDS011;275;48.492;9.214;2023-04-15T03:54:24;6.93;;;6.13;;
577;SDS011;275;48.492;9.214;2023-04-15T03:56:51;7.00;;;5.68;;
577;SDS011;275;48.492;9.214;2023-04-15T03:59:18;6.55;;;5.20;;
577;SDS011;275;48.492;9.214;2023-04-15T04:01:46;6.63;;;4.90;;
577;SDS011;275;48.492;9.214;2023-04-15T04:04:13;8.80;;;5.57;;
577;SDS011;275;48.492;9.214;2023-04-15T04:06:45;7.25;;;6.45;;
577;SDS011;275;48.492;9.214;2023-04-15T04:09:15;9.57;;;6.25;;
577;SDS011;275;48.492;9.214;2023-04-15T04:11:41;7.47;;;6.13;;
577;SDS011;275;48.492;9.214;2023-04-15T04:14:09;8.55;;;6.05;;
577;SDS011;275;48.492;9.214;2023-04-15T04:16:36;9.90;;;6.68;;
577;SDS011;275;48.492;9.214;2023-04-15T04:19:04;6.65;;;5.20;;
577;SDS011;275;48.492;9.214;2023-04-15T04:21:31;8.23;;;5.03;;
577;SDS011;275;48.492;9.214;2023-04-15T04:23:59;7.82;;;5.18;;
577;SDS011;275;48.492;9.214;2023-04-15T04:26:26;6.75;;;5.55;;
577;SDS011;275;48.492;9.214;2023-04-15T04:28:53;8.82;;;6.50;;
577;SDS011;275;48.492;9.214;2023-04-15T04:31:20;7.30;;;5.40;;
577;SDS011;275;48.492;9.214;2023-04-15T04:33:47;5.85;;;4.55;;
577;SDS011;275;48.492;9.214;2023-04-15T04:36:16;5.13;;;4.30;;
577;SDS011;275;48.492;9.214;2023-04-15T04:38:42;7.53;;;4.65;;
577;SDS011;275;48.492;9.214;2023-04-15T04:41:10;7.35;;;5.13;;
577;SDS011;275;48.492;9.214;2023-04-15T04:43:37;5.55;;;4.78;;
577;SDS011;275;48.492;9.214;2023-04-15T04:46:04;7.72;;;4.78;;
577;SDS011;275;48.492;9.214;2023-04-15T04:48:30;6.10;;;4.90;;
577;SDS011;275;48.492;9.214;2023-04-15T04:50:57;5.30;;;4.43;;
577;SDS011;275;48.492;9.214;2023-04-15T04:53:26;6.20;;;4.95;;
577;SDS011;275;48.492;9.214;2023-04-15T04:55:53;12.93;;;6.45;;
577;SDS011;275;48.492;9.214;2023-04-15T04:58:19;7.43;;;5.05;;
577;SDS011;275;48.492;9.214;2023-04-15T05:00:46;7.03;;;5.40;;
577;SDS011;275;48.492;9.214;2023-04-15T05:03:16;10.65;;;5.60;;
577;SDS011;275;48.492;9.214;2023-04-15T05:05:55;7.32;;;5.30;;
577;SDS011;275;48.492;9.214;2023-04-15T05:08:22;9.15;;;6.60;;
577;SDS011;275;48.492;9.214;2023-04-15T05:10:50;9.70;;;7.47;;
577;SDS011;275;48.492;9.214;2023-04-15T05:13:17;10.73;;;7.40;;
577;SDS011;275;48.492;9.214;2023-04-15T05:15:45;7.03;;;6.32;;
577;SDS011;275;48.492;9.214;2023-04-15T05:18:12;8.85;;;6.40;;
577;SDS011;275;48.492;9.214;2023-04-15T05:20:39;9.05;;;5.93;;
577;SDS011;275;48.492;9.214;2023-04-15T05:23:06;10.05;;;6.75;;
577;SDS011;275;48.492;9.214;2023-04-15T05:25:33;10.07;;;6.63;;
577;SDS011;275;48.492;9.214;2023-04-15T05:28:01;7.93;;;6.20;;
577;SDS011;275;48.492;9.214;2023-04-15T05:30:28;7.22;;;6.05;;
577;SDS011;275;48.492;9.214;2023-04-15T05:32:55;11.10;;;6.50;;
577;SDS011;275;48.492;9.214;2023-04-15T05:35:22;8.02;;;6.07;;
577;SDS011;275;48.492;9.214;2023-04-15T05:37:49;6.30;;;5.68;;
577;SDS011;275;48.492;9.214;2023-04-15T05:40:15;9.07;;;6.53;;
577;SDS011;275;48.492;9.214;2023-04-15T05:42:42;6.63;;;5.95;;
577;SDS011;275;48.492;9.214;2023-04-15T05:45:11;10.15;;;5.50;;
577;SDS011;275;48.492;9.214;2023-04-15T05:47:38;8.10;;;6.40;;
577;SDS011;275;48.492;9.214;2023-04-15T05:50:05;7.32;;;5.57;;
577;SDS011;275;48.492;9.214;2023-04-15T05:52:32;6.03;;;4.90;;
577;SDS011;275;48.492;9.214;2023-04-15T05:54:59;9.82;;;5.38;;
577;SDS011;275;48.492;9.214;2023-04-15T05:57:26;7.28;;;4.80;;
577;SDS011;275;48.492;9.214;2023-04-15T05:59:53;8.02;;;5.40;;
577;SDS011;275;48.492;9.214;2023-04-15T06:02:22;8.00;;;4.93;;
577;SDS011;275;48.492;9.214;2023-04-15T06:04:49;11.05;;;6.13;;
577;SDS011;275;48.492;9.214;2023-04-15T06:07:16;7.55;;;5.15;;
577;SDS011;275;48.492;9.214;2023-04-15T06:09:43;5.82;;;4.53;;
577;SDS011;275;48.492;9.214;2023-04-15T06:12:10;6.53;;;4.50;;
577;SDS011;275;48.492;9.214;2023-04-15T06:14:37;9.88;;;4.47;;
577;SDS011;275;48.492;9.214;2023-04-15T06:17:04;7.63;;;4.60;;
577;SDS011;275;48.492;9.214;2023-04-15T06:19:32;7.50;;;6.05;;
577;SDS011;275;48.492;9.214;2023-04-15T06:22:00;6.32;;;4.80;;
577;SDS011;275;48.492;9.214;2023-04-15T06:24:27;6.60;;;5.00;;
577;SDS011;275;48.492;9.214;2023-04-15T06:26:55;6.97;;;4.85;;
577;SDS011;275;48.492;9.214;2023-04-15T06:29:22;6.93;;;5.07;;
577;SDS011;275;48.492;9.214;2023-04-15T06:31:49;8.30;;;5.00;;
577;SDS011;275;48.492;9.214;2023-04-15T06:34:16;8.73;;;5.50;;
577;SDS011;275;48.492;9.214;2023-04-15T06:36:44;6.97;;;5.53;;
577;SDS011;275;48.492;9.214;2023-04-15T06:39:11;11.70;;;5.55;;
577;SDS011;275;48.492;9.214;2023-04-15T06:41:38;8.15;;;5.60;;
577;SDS011;275;48.492;9.214;2023-04-15T06:44:05;7.95;;;5.65;;
577;SDS011;275;48.492;9.214;2023-04-15T06:46:32;7.95;;;5.50;;
577;SDS011;275;48.492;9.214;2023-04-15T06:48:58;10.13;;;5.40;;
577;SDS011;275;48.492;9.214;2023-04-15T06:51:25;7.97;;;5.20;;
577;SDS011;275;48.492;9.214;2023-04-15T06:53:53;9.43;;;4.40;;
577;SDS011;275;48.492;9.214;2023-04-15T06:56:21;8.00;;;5.32;;
577;SDS011;275;48.492;9.214;2023-04-15T06:58:47;8.82;;;5.68;;
577;SDS011;275;48.492;9.214;2023-04-15T07:01:14;6.32;;;5.40;;
577;SDS011;275;48.492;9.214;2023-04-15T07:03:41;7.57;;;5.15;;
577;SDS011;275;48.492;9.214;2023-04-15T07:06:08;11.63;;;6.15;;
577;SDS011;275;48.492;9.214;2023-04-15T07:08:35;6.30;;;5.28;;
577;SDS011;275;48.492;9.214;2023-04-15T07:11:03;7.65;;;5.82;;
577;SDS011;275;48.492;9.214;2023-04-15T07:13:30;7.45;;;5.78;;
577;SDS011;275;48.492;9.214;2023-04-15T07:15:59;8.68;;;6.00;;
577;SDS011;275;48.492;9.214;2023-04-15T07:18:29;9.23;;;6.35;;
577;SDS011;275;48.492;9.214;2023-04-15T07:20:56;7.97;;;6.13;;
577;SDS011;275;48.492;9.214;2023-04-15T07:23:23;11.30;;;5.50;;
577;SDS011;275;48.492;9.214;2023-04-15T07:25:49;8.40;;;6.70;;
577;SDS011;275;48.492;9.214;2023-04-15T07:28:18;9.10;;;6.32;;
577;SDS011;275;48.492;9.214;2023-04-15T07:30:45;6.68;;;5.20;;
577;SDS011;275;48.492;9.214;2023-04-15T07:33:12;6.38;;;5.38;;
577;SDS011;275;48.492;9.214;2023-04-15T07:35:39;7.37;;;5.60;;
577;SDS011;275;48.492;9.214;2023-04-15T07:38:06;6.73;;;5.30;;
577;SDS011;275;48.492;9.214;2023-04-15T07:40:32;8.47;;;5.90;;
577;SDS011;275;48.492;9.214;2023-04-15T07:42:59;8.60;;;5.13;;
577;SDS011;275;48.492;9.214;2023-04-15T07:45:28;7.87;;;5.10;;
577;SDS011;275;48.492;9.214;2023-04-15T07:47:55;6.10;;;4.97;;
577;SDS011;275;48.492;9.214;2023-04-15T07:50:22;6.53;;;4.27;;
577;SDS011;275;48.492;9.214;2023-04-15T07:52:50;5.80;;;4.50;;
577;SDS011;275;48.492;9.214;2023-04-15T07:55:17;7.67;;;4.57;;
577;SDS011;275;48.492;9.214;2023-04-15T07:57:47;6.50;;;3.90;;
577;SDS011;275;48.492;9.214;2023-04-15T08:00:14;6.63;;;4.47;;
577;SDS011;275;48.492;9.214;2023-04-15T08:02:43;7.70;;;3.37;;
577;SDS011;275;48.492;9.214;2023-04-15T08:05:11;6.70;;;3.10;;
577;SDS011;275;48.492;9.214;2023-04-15T08:07:39;7.90;;;4.60;;
577;SDS011;275;48.492;9.214;2023-04-15T08:10:06;6.77;;;4.80;;
577;SDS011;275;48.492;9.214;2023-04-15T08:12:36;5.97;;;4.27;;
577;SDS011;275;48.492;9.214;2023-04-15T08:15:03;7.50;;;4.87;;
577;SDS011;275;48.492;9.214;2023-04-15T08:17:32;9.13;;;4.87;;
577;SDS011;275;48.492;9.214;2023-04-15T08:20:00;6.40;;;4.90;;
577;SDS011;275;48.492;9.214;2023-04-15T08:22:27;7.80;;;5.70;;
577;SDS011;275;48.492;9.214;2023-04-15T08:24:54;7.23;;;5.47;;
577;SDS011;275;48.492;9.214;2023-04-15T08:27:21;6.07;;;3.27;;
577;SDS011;275;48.492;9.214;2023-04-15T08:29:50;9.07;;;4.20;;
577;SDS011;275;48.492;9.214;2023-04-15T08:32:17;5.73;;;4.07;;
577;SDS011;275;48.492;9.214;2023-04-15T08:34:44;7.80;;;4.70;;
577;SDS011;275;48.492;9.214;2023-04-15T08:37:12;6.17;;;3.57;;
577;SDS011;275;48.492;9.214;2023-04-15T08:39:39;7.50;;;4.60;;
577;SDS011;275;48.492;9.214;2023-04-15T08:42:07;4.50;;;3.47;;
577;SDS011;275;48.492;9.214;2023-04-15T08:44:41;5.50;;;3.97;;
577;SDS011;275;48.492;9.214;2023-04-15T08:47:09;9.53;;;4.47;;
577;SDS011;275;48.492;9.214;2023-04-15T08:49:39;8.87;;;4.13;;
577;SDS011;275;48.492;9.214;2023-04-15T08:52:08;8.47;;;4.60;;
577;SDS011;275;48.492;9.214;2023-04-15T08:54:38;6.97;;;3.80;;
577;SDS011;275;48.492;9.214;2023-04-15T08:57:06;6.60;;;3.80;;
577;SDS011;275;48.492;9.214;2023-04-15T08:59:33;7.40;;;3.80;;
577;SDS011;275;48.492;9.214;2023-04-15T09:02:01;6.80;;;4.10;;
577;SDS011;275;48.492;9.214;2023-04-15T09:04:28;9.80;;;4.00;;
577;SDS011;275;48.492;9.214;2023-04-15T09:06:56;4.97;;;3.47;;
577;SDS011;275;48.492;9.214;2023-04-15T09:09:22;7.00;;;4.40;;
577;SDS011;275;48.492;9.214;2023-04-15T09:11:51;8.70;;;4.00;;
577;SDS011;275;48.492;9.214;2023-04-15T09:14:17;6.90;;;3.83;;
577;SDS011;275;48.492;9.214;2023-04-15T09:16:57;8.53;;;3.83;;
577;SDS011;275;48.492;9.214;2023-04-15T09:19:27;6.63;;;3.90;;
577;SDS011;275;48.492;9.214;2023-04-15T09:21:55;9.40;;;4.00;;
577;SDS011;275;48.492;9.214;2023-04-15T09:24:22;5.17;;;3.23;;
577;SDS011;275;48.492;9.214;2023-04-15T09:26:52;7.40;;;3.67;;
577;SDS011;275;48.492;9.214;2023-04-15T09:29:20;7.90;;;3.23;;
577;SDS011;275;48.492;9.214;2023-04-15T09:31:50;7.30;;;3.30;;
577;SDS011;275;48.492;9.214;2023-04-15T09:34:20;5.87;;;3.00;;
577;SDS011;275;48.492;9.214;2023-04-15T09:37:01;8.20;;;3.73;;
577;SDS011;275;48.492;9.214;2023-04-15T09:39:29;6.93;;;3.37;;
577;SDS011;275;48.492;9.214;2023-04-15T09:42:13;5.87;;;3.07;;
577;SDS011;275;48.492;9.214;2023-04-15T09:44:41;6.13;;;2.87;;
577;SDS011;275;48.492;9.214;2023-04-15T09:47:08;5.97;;;3.40;;
577;SDS011;275;48.492;9.214;2023-04-15T09:49:54;6.83;;;3.60;;
577;SDS011;275;48.492;9.214;2023-04-15T09:52:22;7.73;;;3.77;;
577;SDS011;275;48.492;9.214;2023-04-15T09:54:49;6.10;;;3.80;;
577;SDS011;275;48.492;9.214;2023-04-15T09:57:20;5.83;;;3.67;;
577;SDS011;275;48.492;9.214;2023-04-15T09:59:48;7.83;;;4.17;;
577;SDS011;275;48.492;9.214;2023-04-15T10:02:15;5.07;;;3.87;;
577;SDS011;275;48.492;9.214;2023-04-15T10:04:44;7.83;;;3.80;;
577;SDS011;275;48.492;9.214;2023-04-15T10:07:13;6.43;;;3.60;;
577;SDS011;275;48.492;9.214;2023-04-15T10:09:42;5.70;;;3.50;;
577;SDS011;275;48.492;9.214;2023-04-15T10:12:11;7.33;;;3.57;;
577;SDS011;275;48.492;9.214;2023-04-15T10:14:39;6.23;;;4.67;;
577;SDS011;275;48.492;9.214;2023-04-15T10:17:09;7.23;;;4.73;;
577;SDS011;275;48.492;9.214;2023-04-15T10:19:37;5.27;;;3.67;;
577;SDS011;275;48.492;9.214;2023-04-15T10:22:05;5.10;;;3.43;;
577;SDS011;275;48.492;9.214;2023-04-15T10:24:33;7.03;;;3.83;;
577;SDS011;275;48.492;9.214;2023-04-15T10:27:01;7.03;;;3.77;;
577;SDS011;275;48.492;9.214;2023-04-15T10:29:29;7.50;;;4.67;;
577;SDS011;275;48.492;9.214;2023-04-15T10:31:57;9.70;;;6.90;;
577;SDS011;275;48.492;9.214;2023-04-15T10:34:25;6.33;;;4.50;;
577;SDS011;275;48.492;9.214;2023-04-15T10:36:54;6.93;;;5.00;;
577;SDS011;275;48.492;9.214;2023-04-15T10:42:08;7.37;;;3.20;;
577;SDS011;275;48.492;9.214;2023-04-15T10:44:36;5.47;;;3.60;;
577;SDS011;275;48.492;9.214;2023-04-15T10:47:08;5.23;;;3.10;;
577;SDS011;275;48.492;9.214;2023-04-15T10:49:44;5.73;;;3.20;;
577;SDS011;275;48.492;9.214;2023-04-15T10:52:13;6.73;;;3.20;;
577;SDS011;275;48.492;9.214;2023-04-15T10:54:41;5.90;;;3.23;;
577;SDS011;275;48.492;9.214;2023-04-15T10:57:13;4.80;;;2.90;;
577;SDS011;275;48.492;9.214;2023-04-15T11:02:44;5.57;;;3.67;;
577;SDS011;275;48.492;9.214;2023-04-15T11:05:14;6.73;;;2.90;;
577;SDS011;275;48.492;9.214;2023-04-15T11:07:49;7.83;;;3.87;;
577;SDS011;275;48.492;9.214;2023-04-15T11:13:19;6.70;;;4.27;;
577;SDS011;275;48.492;9.214;2023-04-15T11:15:47;6.43;;;3.60;;
577;SDS011;275;48.492;9.214;2023-04-15T11:18:17;6.73;;;3.70;;
577;SDS011;275;48.492;9.214;2023-04-15T11:20:46;7.10;;;2.97;;
577;SDS011;275;48.492;9.214;2023-04-15T11:23:16;6.60;;;4.07;;
577;SDS011;275;48.492;9.214;2023-04-15T11:25:43;5.30;;;3.13;;
577;SDS011;275;48.492;9.214;2023-04-15T11:28:12;5.93;;;3.10;;
577;SDS011;275;48.492;9.214;2023-04-15T11:30:39;4.70;;;2.53;;
577;SDS011;275;48.492;9.214;2023-04-15T11:33:07;6.33;;;3.10;;
577;SDS011;275;48.492;9.214;2023-04-15T11:35:37;5.30;;;3.63;;
577;SDS011;275;48.492;9.214;2023-04-15T11:38:07;4.60;;;2.60;;
577;SDS011;275;48.492;9.214;2023-04-15T11:40:35;6.67;;;4.20;;
577;SDS011;275;48.492;9.214;2023-04-15T11:43:03;6.63;;;3.33;;
577;SDS011;275;48.492;9.214;2023-04-15T11:45:30;6.87;;;3.60;;
577;SDS011;275;48.492;9.214;2023-04-15T11:48:03;5.07;;;3.13;;
577;SDS011;275;48.492;9.214;2023-04-15T11:50:31;5.90;;;3.97;;
577;SDS011;275;48.492;9.214;2023-04-15T11:53:00;5.93;;;3.40;;
577;SDS011;275;48.492;9.214;2023-04-15T11:55:29;6.20;;;3.50;;
577;SDS011;275;48.492;9.214;2023-04-15T11:58:07;6.07;;;3.50;;
577;SDS011;275;48.492;9.214;2023-04-15T12:00:35;6.37;;;3.57;;
577;SDS011;275;48.492;9.214;2023-04-15T12:03:10;4.60;;;2.93;;
577;SDS011;275;48.492;9.214;2023-04-15T12:11:18;5.33;;;2.93;;
577;SDS011;275;48.492;9.214;2023-04-15T12:13:45;5.90;;;3.20;;
577;SDS011;275;48.492;9.214;2023-04-15T12:16:15;4.00;;;2.23;;
577;SDS011;275;48.492;9.214;2023-04-15T12:18:43;5.27;;;2.83;;
577;SDS011;275;48.492;9.214;2023-04-15T12:21:11;6.07;;;3.17;;
577;SDS011;275;48.492;9.214;2023-04-15T12:23:38;5.03;;;3.23;;
577;SDS011;275;48.492;9.214;2023-04-15T12:26:15;4.27;;;2.93;;
577;SDS011;275;48.492;9.214;2023-04-15T12:28:42;5.60;;;3.03;;
577;SDS011;275;48.492;9.214;2023-04-15T12:31:09;5.57;;;3.47;;
577;SDS011;275;48.492;9.214;2023-04-15T12:33:38;5.80;;;3.80;;
577;SDS011;275;48.492;9.214;2023-04-15T12:36:05;6.10;;;3.50;;
577;SDS011;275;48.492;9.214;2023-04-15T12:38:32;3.90;;;2.50;;
577;SDS011;275;48.492;9.214;2023-04-15T12:40:59;5.13;;;3.20;;
577;SDS011;275;48.492;9.214;2023-04-15T12:43:27;5.23;;;3.00;;
577;SDS011;275;48.492;9.214;2023-04-15T12:45:54;4.80;;;3.03;;
577;SDS011;275;48.492;9.214;2023-04-15T12:48:20;5.30;;;2.83;;
577;SDS011;275;48.492;9.214;2023-04-15T12:50:47;6.77;;;3.67;;
577;SDS011;275;48.492;9.214;2023-04-15T12:53:14;4.80;;;2.97;;
577;SDS011;275;48.492;9.214;2023-04-15T12:55:41;5.67;;;2.73;;
577;SDS011;275;48.492;9.214;2023-04-15T12:58:08;5.07;;;3.40;;
577;SDS011;275;48.492;9.214;2023-04-15T13:00:37;7.10;;;3.40;;
577;SDS011;275;48.492;9.214;2023-04-15T13:03:04;5.33;;;3.30;;
577;SDS011;275;48.492;9.214;2023-04-15T13:05:31;7.23;;;3.40;;
577;SDS011;275;48.492;9.214;2023-04-15T13:07:57;6.03;;;2.70;;
577;SDS011;275;48.492;9.214;2023-04-15T13:10:24;7.27;;;2.40;;
577;SDS011;275;48.492;9.214;2023-04-15T13:12:52;6.53;;;2.47;;
577;SDS011;275;48.492;9.214;2023-04-15T13:15:20;6.30;;;2.80;;
577;SDS011;275;48.492;9.214;2023-04-15T13:17:48;6.33;;;3.03;;
577;SDS011;275;48.492;9.214;2023-04-15T13:20:15;6.20;;;3.20;;
577;SDS011;275;48.492;9.214;2023-04-15T13:22:42;7.07;;;3.67;;
577;SDS011;275;48.492;9.214;2023-04-15T13:25:09;6.37;;;3.93;;
577;SDS011;275;48.492;9.214;2023-04-15T13:27:36;5.80;;;4.43;;
577;SDS011;275;48.492;9.214;2023-04-15T13:30:03;6.83;;;4.70;;
577;SDS011;275;48.492;9.214;2023-04-15T13:32:31;6.17;;;4.23;;
577;SDS011;275;48.492;9.214;2023-04-15T13:34:59;6.63;;;4.40;;
577;SDS011;275;48.492;9.214;2023-04-15T13:37:26;6.20;;;4.40;;
577;SDS011;275;48.492;9.214;2023-04-15T13:39:54;5.40;;;4.10;;
577;SDS011;275;48.492;9.214;2023-04-15T13:42:21;10.97;;;5.40;;
577;SDS011;275;48.492;9.214;2023-04-15T13:44:48;5.30;;;4.67;;
577;SDS011;275;48.492;9.214;2023-04-15T13:47:16;5.23;;;4.10;;
577;SDS011;275;48.492;9.214;2023-04-15T13:49:44;5.77;;;4.20;;
577;SDS011;275;48.492;9.214;2023-04-15T13:52:12;6.30;;;4.50;;
577;SDS011;275;48.492;9.214;2023-04-15T13:54:39;5.43;;;4.70;;
577;SDS011;275;48.492;9.214;2023-04-15T13:57:06;6.90;;;4.37;;
577;SDS011;275;48.492;9.214;2023-04-15T13:59:33;5.40;;;4.33;;
577;SDS011;275;48.492;9.214;2023-04-15T14:02:00;4.80;;;4.30;;
577;SDS011;275;48.492;9.214;2023-04-15T14:04:27;5.10;;;4.27;;
577;SDS011;275;48.492;9.214;2023-04-15T14:06:54;5.93;;;4.10;;
577;SDS011;275;48.492;9.214;2023-04-15T14:09:23;6.77;;;4.40;;
577;SDS011;275;48.492;9.214;2023-04-15T14:11:50;4.60;;;3.80;;
577;SDS011;275;48.492;9.214;2023-04-15T14:14:17;5.53;;;4.17;;
577;SDS011;275;48.492;9.214;2023-04-15T14:16:43;4.30;;;3.80;;
577;SDS011;275;48.492;9.214;2023-04-15T14:19:11;6.00;;;4.67;;
577;SDS011;275;48.492;9.214;2023-04-15T14:21:38;7.80;;;4.50;;
577;SDS011;275;48.492;9.214;2023-04-15T14:24:05;7.40;;;5.03;;
577;SDS011;275;48.492;9.214;2023-04-15T14:26:33;6.83;;;4.40;;
577;SDS011;275;48.492;9.214;2023-04-15T14:29:00;5.00;;;3.80;;
577;SDS011;275;48.492;9.214;2023-04-15T14:31:27;9.63;;;6.60;;
577;SDS011;275;48.492;9.214;2023-04-15T14:33:54;5.87;;;4.50;;
577;SDS011;275;48.492;9.214;2023-04-15T14:36:20;6.60;;;5.20;;
577;SDS011;275;48.492;9.214;2023-04-15T14:38:47;7.67;;;5.40;;
577;SDS011;275;48.492;9.214;2023-04-15T14:41:14;6.07;;;4.20;;
577;SDS011;275;48.492;9.214;2023-04-15T14:43:42;4.57;;;4.00;;
577;SDS011;275;48.492;9.214;2023-04-15T14:46:09;6.03;;;4.28;;
577;SDS011;275;48.492;9.214;2023-04-15T14:48:38;5.37;;;4.13;;
577;SDS011;275;48.492;9.214;2023-04-15T14:51:05;5.30;;;3.93;;
577;SDS011;275;48.492;9.214;2023-04-15T14:53:32;5.30;;;3.50;;
577;SDS011;275;48.492;9.214;2023-04-15T14:55:59;6.67;;;4.90;;
577;SDS011;275;48.492;9.214;2023-04-15T14:58:25;7.20;;;3.40;;
577;SDS011;275;48.492;9.214;2023-04-15T15:00:53;8.13;;;4.30;;
577;SDS011;275;48.492;9.214;2023-04-15T15:03:20;6.73;;;3.77;;
577;SDS011;275;48.492;9.214;2023-04-15T15:05:48;5.60;;;4.00;;
577;SDS011;275;48.492;9.214;2023-04-15T15:08:15;4.60;;;3.17;;
577;SDS011;275;48.492;9.214;2023-04-15T15:10:42;4.93;;;4.10;;
577;SDS011;275;48.492;9.214;2023-04-15T15:13:08;6.20;;;4.00;;
577;SDS011;275;48.492;9.214;2023-04-15T15:15:35;5.63;;;3.63;;
577;SDS011;275;48.492;9.214;2023-04-15T15:18:04;4.23;;;3.10;;
577;SDS011;275;48.492;9.214;2023-04-15T15:20:31;4.97;;;2.28;;
577;SDS011;275;48.492;9.214;2023-04-15T15:22:58;4.40;;;2.43;;
577;SDS011;275;48.492;9.214;2023-04-15T15:25:25;4.60;;;2.35;;
577;SDS011;275;48.492;9.214;2023-04-15T15:27:53;4.73;;;2.80;;
577;SDS011;275;48.492;9.214;2023-04-15T15:30:20;3.20;;;2.20;;
577;SDS011;275;48.492;9.214;2023-04-15T15:32:47;3.37;;;1.90;;
577;SDS011;275;48.492;9.214;2023-04-15T15:35:15;5.20;;;2.30;;
577;SDS011;275;48.492;9.214;2023-04-15T15:37:41;3.90;;;2.73;;
577;SDS011;275;48.492;9.214;2023-04-15T15:40:09;3.30;;;2.20;;
577;SDS011;275;48.492;9.214;2023-04-15T15:42:36;3.60;;;2.40;;
577;SDS011;275;48.492;9.214;2023-04-15T15:45:04;5.83;;;2.97;;
577;SDS011;275;48.492;9.214;2023-04-15T15:47:31;3.90;;;2.70;;
577;SDS011;275;48.492;9.214;2023-04-15T15:49:58;6.10;;;2.67;;
577;SDS011;275;48.492;9.214;2023-04-15T15:52:27;4.80;;;3.10;;
577;SDS011;275;48.492;9.214;2023-04-15T15:54:54;5.57;;;3.40;;
577;SDS011;275;48.492;9.214;2023-04-15T15:57:21;5.70;;;3.27;;
577;SDS011;275;48.492;9.214;2023-04-15T15:59:48;4.93;;;3.43;;
577;SDS011;275;48.492;9.214;2023-04-15T16:02:14;5.80;;;3.58;;
577;SDS011;275;48.492;9.214;2023-04-15T16:04:41;4.70;;;3.33;;